Time;durP1;ratioP1;P1;durP2;ratioP2;P2;SDS_P1;SDS_P2;PMS_P1;PMS_P2;Temp;Humidity;BMP_temperature;BMP_pressure;BME280_temperature;BME280_humidity;BME280_pressure;Samples;Min_cycle;Max_cycle;Signal;HPM_P1;HPM_P2
2023/06/15 00:00:06;;;;;;;;;;;18.10;78.00;;;17.35;71.47;96137.91;5054770;28;19927;-86
2023/06/15 00:02:40;;;;;;;;;;;18.10;78.10;;;17.33;71.75;96135.44;5054752;28;19921;-86
2023/06/15 00:05:09;;;;;;;;;;;18.10;78.10;;;17.36;71.51;96135.97;5054180;28;19926;-86
2023/06/15 00:07:38;;;;;;;;;;;18.10;78.10;;;17.36;71.50;96133.19;5054634;28;19921;-86
2023/06/15 00:10:08;;;;;;;;;;;18.10;78.20;;;17.35;71.60;96132.38;5038275;28;19942;-86
2023/06/15 00:12:36;;;;;;;;;;;18.10;78.20;;;17.35;71.53;96124.09;5037930;28;19920;-86
2023/06/15 00:15:04;;;;;;;;;;;18.10;78.20;;;17.35;71.61;96137.91;5037377;28;19920;-86
2023/06/15 00:17:37;;;;;;;;;;;18.10;78.20;;;17.35;71.45;96126.84;5038198;28;19920;-86
2023/06/15 00:20:12;;;;;;;;;;;18.10;78.10;;;17.35;71.62;96124.09;5037299;28;20238;-87
2023/06/15 00:22:45;;;;;;;;;;;18.10;78.00;;;17.35;71.47;96126.84;5038189;28;19921;-87
2023/06/15 00:25:13;;;;;;;;;;;18.10;78.10;;;17.36;71.28;96127.66;5037394;28;19927;-87
2023/06/15 00:27:42;;;;;;;;;;;18.10;78.00;;;17.35;71.50;96124.09;5038049;28;19920;-87
2023/06/15 00:30:11;;;;;;;;;;;18.10;78.00;;;17.35;71.41;96129.63;5038034;28;19929;-86
2023/06/15 00:32:39;;;;;;;;;;;18.10;78.00;;;17.35;71.50;96137.91;5037963;28;19921;-87
2023/06/15 00:35:08;;;;;;;;;;;18.10;77.90;;;17.34;71.41;96130.75;5071553;28;19926;-86
2023/06/15 00:37:36;;;;;;;;;;;18.10;77.90;;;17.33;71.17;96126.34;5037880;28;19927;-87
2023/06/15 00:40:07;;;;;;;;;;;18.10;77.80;;;17.34;71.31;96136.28;5037880;28;20234;-87
2023/06/15 00:42:35;;;;;;;;;;;18.10;77.70;;;17.33;71.31;96129.13;5037901;28;19921;-87
2023/06/15 00:45:07;;;;;;;;;;;18.10;77.70;;;17.30;71.35;96124.22;5053749;28;19920;-88
2023/06/15 00:47:38;;;;;;;;;;;18.10;77.70;;;17.32;71.13;96139.34;5037666;28;19927;-87
2023/06/15 00:50:09;;;;;;;;;;;18.10;77.70;;;17.31;71.08;96132.19;5037553;28;19920;-87
2023/06/15 00:52:37;;;;;;;;;;;18.10;77.70;;;17.31;71.33;96134.94;5037732;28;19927;-86
2023/06/15 00:55:11;;;;;;;;;;;18.10;77.60;;;17.31;71.07;96136.91;5036816;28;19942;-87
2023/06/15 00:57:44;;;;;;;;;;;18.10;77.60;;;17.31;71.11;96136.91;5037602;28;19927;-86
2023/06/15 01:00:13;;;;;;;;;;;18.10;77.60;;;17.29;71.06;96131.69;5054090;28;20111;-86
2023/06/15 01:02:42;;;;;;;;;;;18.10;77.60;;;17.30;71.08;96135.28;5054001;28;19920;-86
2023/06/15 01:05:12;;;;;;;;;;;18.10;77.60;;;17.29;71.08;96133.63;5036762;28;19946;-87
2023/06/15 01:07:40;;;;;;;;;;;18.10;77.60;;;17.28;70.83;96137.53;5037254;28;19920;-87
2023/06/15 01:10:10;;;;;;;;;;;18.10;77.40;;;17.27;70.93;96136.72;5053680;28;19934;-87
2023/06/15 01:12:40;;;;;;;;;;;18.10;77.40;;;17.25;70.95;96133.47;5037270;28;19921;-86
2023/06/15 01:15:09;;;;;;;;;;;18.00;77.30;;;17.24;71.12;96131.00;5053126;28;19920;-86
2023/06/15 01:17:37;;;;;;;;;;;18.00;77.40;;;17.24;71.12;96126.28;5053787;28;19921;-85
2023/06/15 01:20:07;;;;;;;;;;;18.00;77.50;;;17.25;70.98;96127.09;5037038;28;19974;-85
2023/06/15 01:22:45;;;;;;;;;;;18.00;77.40;;;17.24;71.05;96126.28;5037121;28;19920;-85
2023/06/15 01:25:26;;;;;;;;;;;18.00;77.40;;;17.25;71.04;96127.09;5052904;28;19927;-87
2023/06/15 01:27:59;;;;;;;;;;;18.00;77.40;;;17.25;71.08;96135.38;5053591;28;19926;-87
2023/06/15 01:30:28;;;;;;;;;;;18.00;77.40;;;17.23;71.11;96130.19;5071139;28;19927;-86
2023/06/15 01:32:56;;;;;;;;;;;18.00;77.50;;;17.24;70.98;96125.44;5053597;28;20124;-86
2023/06/15 01:35:24;;;;;;;;;;;18.00;77.40;;;17.24;71.04;96136.53;5052823;28;19926;-85
2023/06/15 01:37:52;;;;;;;;;;;18.00;77.50;;;17.23;71.03;96134.91;5073027;28;19926;-85
2023/06/15 01:40:20;;;;;;;;;;;18.00;77.40;;;17.23;71.06;96129.38;5056824;28;19920;-86
2023/06/15 01:42:48;;;;;;;;;;;18.00;77.40;;;17.24;71.00;96131.00;5056619;28;20210;-86
2023/06/15 01:45:17;;;;;;;;;;;18.00;77.40;;;17.23;70.90;96129.38;5055835;28;19934;-85
2023/06/15 01:47:48;;;;;;;;;;;18.00;77.30;;;17.22;70.95;96122.22;5073476;28;19926;-85
2023/06/15 01:50:16;;;;;;;;;;;18.00;77.20;;;17.23;70.95;96123.84;5056927;28;19921;-86
2023/06/15 01:52:44;;;;;;;;;;;18.00;77.20;;;17.23;70.91;96124.66;5073517;28;19930;-86
2023/06/15 01:55:12;;;;;;;;;;;18.00;77.20;;;17.21;70.99;96113.06;5048100;28;19927;-86
2023/06/15 01:57:40;;;;;;;;;;;18.00;77.20;;;17.21;70.84;96118.59;5036876;28;19921;-86
2023/06/15 02:00:10;;;;;;;;;;;18.00;77.20;;;17.22;70.67;96117.47;5036792;28;19928;-86
2023/06/15 02:02:47;;;;;;;;;;;18.00;77.10;;;17.21;70.72;96117.81;5053552;28;19920;-86
2023/06/15 02:05:15;;;;;;;;;;;18.00;77.10;;;17.21;70.65;96115.84;5052733;28;19927;-86
2023/06/15 02:07:43;;;;;;;;;;;18.00;76.90;;;17.19;70.65;96120.88;5036674;28;19927;-86
2023/06/15 02:10:11;;;;;;;;;;;18.00;76.90;;;17.18;70.38;96117.31;5036687;28;19921;-86
2023/06/15 02:12:39;;;;;;;;;;;18.00;76.90;;;17.18;70.42;96117.31;5053119;28;19929;-86
2023/06/15 02:15:17;;;;;;;;;;;17.90;76.90;;;17.20;70.44;96118.94;5036121;28;20123;-86
2023/06/15 02:17:48;;;;;;;;;;;17.90;76.90;;;17.18;70.26;96122.00;5036773;28;19955;-86
2023/06/15 02:20:17;;;;;;;;;;;17.90;76.80;;;17.17;70.33;96125.91;5052910;28;19926;-87
2023/06/15 02:22:46;;;;;;;;;;;18.00;76.60;;;17.16;70.28;96124.28;5053185;28;19927;-86
2023/06/15 02:25:14;;;;;;;;;;;18.00;76.60;;;17.15;70.24;96122.66;5052519;28;20216;-86
2023/06/15 02:27:42;;;;;;;;;;;18.00;76.60;;;17.15;70.29;96125.41;5053161;28;19920;-86
2023/06/15 02:30:12;;;;;;;;;;;18.00;76.60;;;17.14;70.24;96124.59;5053041;28;19920;-86
2023/06/15 02:32:42;;;;;;;;;;;18.00;76.60;;;17.14;70.16;96116.28;5036534;28;19921;-86
2023/06/15 02:35:12;;;;;;;;;;;18.00;76.60;;;17.13;70.21;96124.91;5035782;28;19920;-86
2023/06/15 02:37:40;;;;;;;;;;;17.90;76.50;;;17.11;70.17;96116.91;5053985;28;19921;-86
2023/06/15 02:40:09;;;;;;;;;;;17.90;76.50;;;17.12;70.20;96113.03;5056330;28;20211;-86
2023/06/15 02:42:37;;;;;;;;;;;17.90;76.40;;;17.11;70.25;96111.38;5057877;28;19928;-86
2023/06/15 02:45:07;;;;;;;;;;;17.90;76.40;;;17.09;69.98;96108.13;5059006;28;19927;-86
2023/06/15 02:47:36;;;;;;;;;;;17.90;76.40;;;17.09;70.09;96121.97;5059564;28;19920;-87
2023/06/15 02:50:04;;;;;;;;;;;17.90;76.40;;;17.09;70.10;96119.19;5058619;28;20245;-86
2023/06/15 02:52:38;;;;;;;;;;;17.90;76.40;;;17.10;69.83;96115.31;5058855;28;19926;-86
2023/06/15 02:55:09;;;;;;;;;;;17.90;76.50;;;17.09;70.17;96112.84;5059054;28;19920;-85
2023/06/15 02:57:37;;;;;;;;;;;17.90;76.60;;;17.10;70.15;96120.84;5059304;28;19921;-86
2023/06/15 03:00:18;;;;;;;;;;;17.90;76.60;;;17.11;70.22;96127.97;5059470;28;19920;-86
2023/06/15 03:03:09;;;;;;;;;;;17.90;76.60;;;17.11;70.29;96127.97;5059349;28;19920;-86
2023/06/15 03:05:41;;;;;;;;;;;17.90;76.70;;;17.11;70.30;96125.22;5058777;28;19920;-86
2023/06/15 03:08:14;;;;;;;;;;;17.90;76.70;;;17.14;70.33;96137.63;5076037;28;19920;-86
2023/06/15 03:10:50;;;;;;;;;;;17.90;76.80;;;17.14;70.17;96140.38;5075955;28;19927;-86
2023/06/15 03:13:19;;;;;;;;;;;17.90;76.80;;;17.14;70.39;96143.94;5059154;28;19920;-86
2023/06/15 03:15:49;;;;;;;;;;;18.00;76.80;;;17.15;70.21;96144.78;5058529;28;20357;-86
2023/06/15 03:18:18;;;;;;;;;;;18.00;76.80;;;17.15;70.36;96140.06;5059012;28;20115;-87
2023/06/15 03:20:52;;;;;;;;;;;17.90;76.80;;;17.13;70.68;96142.31;5058934;28;19920;-86
2023/06/15 03:23:22;;;;;;;;;;;17.90;76.90;;;17.12;70.71;96137.91;5058871;28;19920;-86
2023/06/15 03:25:51;;;;;;;;;;;17.90;76.90;;;17.14;70.48;96143.16;5075131;28;19920;-86
2023/06/15 03:28:23;;;;;;;;;;;17.90;77.00;;;17.12;70.54;96146.22;5058988;28;19920;-86
2023/06/15 03:30:52;;;;;;;;;;;17.90;76.90;;;17.13;70.57;96141.50;5058746;28;19938;-86
2023/06/15 03:33:22;;;;;;;;;;;17.90;77.00;;;17.13;70.54;96141.50;5075791;28;19926;-86
2023/06/15 03:35:53;;;;;;;;;;;17.90;76.90;;;17.13;70.63;96147.84;5058378;28;19920;-85
2023/06/15 03:38:22;;;;;;;;;;;17.90;77.00;;;17.14;70.56;96143.16;5058789;28;19927;-87
2023/06/15 03:40:52;;;;;;;;;;;17.90;77.10;;;17.14;70.56;96143.94;5058617;28;19927;-86
2023/06/15 03:43:20;;;;;;;;;;;17.90;77.00;;;17.14;70.61;96149.47;5092329;28;19920;-86
2023/06/15 03:45:49;;;;;;;;;;;17.90;77.10;;;17.15;70.53;96159.41;5058086;28;19927;-86
2023/06/15 03:48:17;;;;;;;;;;;18.00;77.00;;;17.16;70.87;96152.75;5075326;28;19926;-86
2023/06/15 03:50:46;;;;;;;;;;;17.90;77.10;;;17.15;70.64;96144.78;5058468;28;19927;-85
2023/06/15 03:53:15;;;;;;;;;;;18.00;77.10;;;17.17;70.65;96154.41;5092057;28;19926;-86
2023/06/15 03:55:45;;;;;;;;;;;17.90;77.10;;;17.18;70.63;96150.50;5057981;28;19920;-86
2023/06/15 03:58:13;;;;;;;;;;;17.90;77.10;;;17.19;70.82;96145.78;5055075;28;19927;-86
2023/06/15 04:00:43;;;;;;;;;;;17.90;77.10;;;17.21;70.68;96148.25;5055108;28;19921;-86
2023/06/15 04:03:12;;;;;;;;;;;18.00;77.10;;;17.22;70.56;96138.81;5071767;28;19927;-86
2023/06/15 04:05:40;;;;;;;;;;;18.00;77.00;;;17.22;70.44;96142.38;5037916;28;19927;-86
2023/06/15 04:08:09;;;;;;;;;;;18.00;77.00;;;17.24;70.61;96142.06;5054953;28;20124;-86
2023/06/15 04:10:37;;;;;;;;;;;18.00;77.00;;;17.24;70.59;96136.53;5054836;28;19927;-86
2023/06/15 04:13:06;;;;;;;;;;;18.00;76.90;;;17.25;70.58;96135.38;5038411;28;20093;-87
2023/06/15 04:15:34;;;;;;;;;;;18.00;76.90;;;17.25;70.37;96132.63;5037985;28;19920;-86
2023/06/15 04:18:05;;;;;;;;;;;18.00;76.90;;;17.26;70.57;96134.25;5038231;28;19943;-86
2023/06/15 04:20:33;;;;;;;;;;;18.00;77.00;;;17.26;70.71;96129.56;5038024;28;19927;-86
2023/06/15 04:23:02;;;;;;;;;;;18.00;77.10;;;17.28;70.76;96123.69;5071303;28;19926;-86
2023/06/15 04:25:29;;;;;;;;;;;18.10;77.20;;;17.28;70.66;96126.47;5054067;28;19920;-86
2023/06/15 04:27:57;;;;;;;;;;;18.00;77.10;;;17.30;70.92;96126.97;5038090;28;19927;-86
2023/06/15 04:30:28;;;;;;;;;;;18.10;77.40;;;17.30;70.79;96133.31;5037894;28;19927;-86
2023/06/15 04:32:59;;;;;;;;;;;18.10;77.40;;;17.33;71.07;96135.44;5054642;28;19920;-86
2023/06/15 04:35:31;;;;;;;;;;;18.10;77.50;;;17.36;70.73;96134.03;5037599;28;19921;-86
2023/06/15 04:38:04;;;;;;;;;;;18.10;77.20;;;17.39;71.57;96141.66;5037567;28;20120;-86
2023/06/15 04:40:32;;;;;;;;;;;18.20;78.20;;;17.39;71.16;96130.59;5037874;28;19921;-86
2023/06/15 04:43:02;;;;;;;;;;;18.20;77.70;;;17.41;71.24;96136.63;5054199;28;19935;-86
2023/06/15 04:45:33;;;;;;;;;;;18.20;77.60;;;17.43;71.17;96137.16;5037203;28;19920;-85
2023/06/15 04:48:01;;;;;;;;;;;18.20;77.60;;;17.43;71.13;96139.91;5037719;28;19927;-86
2023/06/15 04:50:30;;;;;;;;;;;18.20;77.70;;;17.43;71.10;96134.38;5054130;28;20223;-85
2023/06/15 04:52:58;;;;;;;;;;;18.20;77.70;;;17.45;70.95;96147.88;5054126;28;19920;-86
2023/06/15 04:55:27;;;;;;;;;;;18.20;77.50;;;17.44;70.87;96146.25;5037037;28;19931;-85
2023/06/15 04:57:56;;;;;;;;;;;18.20;77.40;;;17.43;70.97;96145.44;5054369;28;19920;-86
2023/06/15 05:00:25;;;;;;;;;;;18.20;77.60;;;17.43;71.52;96148.22;5037712;28;19921;-86
2023/06/15 05:03:00;;;;;;;;;;;18.20;77.90;;;17.41;71.02;96147.72;5054100;28;19927;-86
2023/06/15 05:05:28;;;;;;;;;;;18.20;77.70;;;17.42;71.13;96145.78;5036464;28;19927;-86
2023/06/15 05:07:56;;;;;;;;;;;18.20;77.70;;;17.41;71.37;96144.94;5037421;28;19921;-86
2023/06/15 05:10:25;;;;;;;;;;;18.20;78.00;;;17.44;71.53;96146.25;5054164;28;19921;-86
2023/06/15 05:12:53;;;;;;;;;;;18.20;78.10;;;17.44;71.04;96146.25;5053912;28;20234;-86
2023/06/15 05:15:22;;;;;;;;;;;18.20;77.70;;;17.44;71.52;96146.25;5037107;28;19920;-86
2023/06/15 05:17:50;;;;;;;;;;;18.20;78.20;;;17.45;71.59;96143.19;5053896;28;19927;-86
2023/06/15 05:20:20;;;;;;;;;;;18.20;78.20;;;17.46;72.28;96143.97;5037233;28;20204;-86
2023/06/15 05:22:48;;;;;;;;;;;18.20;78.70;;;17.45;71.97;96147.88;5037204;28;19920;-86
2023/06/15 05:25:16;;;;;;;;;;;18.20;78.50;;;17.46;71.82;96155.06;5036643;28;19920;-86
2023/06/15 05:27:45;;;;;;;;;;;18.20;78.60;;;17.45;71.67;96143.19;5037128;28;19921;-86
2023/06/15 05:30:14;;;;;;;;;;;18.20;78.20;;;17.47;71.53;96148.38;5037012;28;19928;-85
2023/06/15 05:32:42;;;;;;;;;;;18.20;78.00;;;17.46;71.86;96153.13;5053693;28;19927;-86
2023/06/15 05:35:12;;;;;;;;;;;18.20;78.30;;;17.47;71.86;96152.00;5036459;28;19921;-86
2023/06/15 05:37:42;;;;;;;;;;;18.20;78.50;;;17.48;71.93;96150.84;5036918;28;19920;-86
2023/06/15 05:40:11;;;;;;;;;;;18.20;78.50;;;17.47;72.05;96163.06;5053760;28;20112;-86
2023/06/15 05:42:39;;;;;;;;;;;18.20;78.80;;;17.51;72.25;96162.41;5053456;28;19921;-86
2023/06/15 05:45:08;;;;;;;;;;;18.30;79.00;;;17.52;72.02;96164.88;5052823;28;19921;-86
2023/06/15 05:47:36;;;;;;;;;;;18.30;78.70;;;17.52;71.95;96162.09;5036840;28;19921;-86
2023/06/15 05:50:06;;;;;;;;;;;18.30;78.50;;;17.54;72.03;96167.31;5036996;28;20113;-86
2023/06/15 05:52:36;;;;;;;;;;;18.30;78.70;;;17.53;71.95;96165.69;5036963;28;19921;-86
2023/06/15 05:55:07;;;;;;;;;;;18.30;78.50;;;17.53;71.76;96172.06;5036126;28;19927;-86
2023/06/15 05:57:35;;;;;;;;;;;18.30;78.50;;;17.53;72.11;96176.75;5053322;28;19920;-86
2023/06/15 06:00:04;;;;;;;;;;;18.30;78.70;;;17.53;71.36;96173.97;5069940;28;19920;-86
2023/06/15 06:02:43;;;;;;;;;;;18.30;77.90;;;17.53;71.14;96171.22;5053294;28;19920;-86
2023/06/15 06:05:20;;;;;;;;;;;18.30;77.70;;;17.53;71.03;96172.06;5036236;28;19920;-85
2023/06/15 06:07:48;;;;;;;;;;;18.30;77.70;;;17.54;71.01;96170.09;5053167;28;19921;-86
2023/06/15 06:10:18;;;;;;;;;;;18.30;77.60;;;17.54;70.83;96172.84;5036693;28;20231;-86
2023/06/15 06:12:46;;;;;;;;;;;18.30;77.30;;;17.54;70.70;96164.53;5053312;28;19927;-86
2023/06/15 06:15:14;;;;;;;;;;;18.30;77.30;;;17.56;70.71;96170.59;5052436;28;20347;-86
2023/06/15 06:17:43;;;;;;;;;;;18.30;77.20;;;17.56;70.74;96176.13;5038553;28;19920;-86
2023/06/15 06:20:13;;;;;;;;;;;18.30;77.20;;;17.56;70.59;96181.66;5040079;28;20204;-86
2023/06/15 06:22:41;;;;;;;;;;;18.30;77.20;;;17.57;70.70;96177.75;5039833;28;19935;-86
2023/06/15 06:25:11;;;;;;;;;;;18.30;77.20;;;17.57;70.45;96184.09;5056021;28;19921;-86
2023/06/15 06:27:40;;;;;;;;;;;18.30;77.10;;;17.58;70.53;96184.94;5039739;28;19930;-85
2023/06/15 06:30:09;;;;;;;;;;;18.30;77.10;;;17.60;70.64;96183.47;5039868;28;19920;-85
2023/06/15 06:32:37;;;;;;;;;;;18.30;77.00;;;17.62;70.68;96185.94;5056510;28;19920;-86
2023/06/15 06:35:06;;;;;;;;;;;18.40;77.10;;;17.64;70.36;96186.41;5055839;28;19921;-86
2023/06/15 06:37:34;;;;;;;;;;;18.40;76.90;;;17.66;70.32;96189.69;5056183;28;19920;-85
2023/06/15 06:40:03;;;;;;;;;;;18.40;76.90;;;17.69;70.33;96191.00;5056478;28;19921;-85
2023/06/15 06:42:31;;;;;;;;;;;18.40;77.00;;;17.74;70.26;96200.03;5073977;28;19920;-86
2023/06/15 06:45:04;;;;;;;;;;;18.50;76.90;;;17.78;70.20;96192.69;5038889;28;19935;-85
2023/06/15 06:47:32;;;;;;;;;;;18.50;76.80;;;17.81;70.08;96195.97;5072866;28;20150;-85
2023/06/15 06:50:00;;;;;;;;;;;18.50;76.60;;;17.82;70.00;96194.84;5039566;28;20115;-86
2023/06/15 06:52:28;;;;;;;;;;;18.50;76.40;;;17.84;69.70;96187.03;5039368;28;20234;-86
2023/06/15 06:54:56;;;;;;;;;;;18.50;76.20;;;17.86;69.69;96190.31;5038936;28;19928;-86
2023/06/15 06:57:24;;;;;;;;;;;18.60;76.30;;;17.85;69.76;96183.94;5055948;28;19927;-86
2023/06/15 06:59:52;;;;;;;;;;;18.60;76.20;;;17.87;69.84;96180.88;5055742;28;19927;-85
2023/06/15 07:02:22;;;;;;;;;;;18.60;76.10;;;17.88;69.79;96186.06;5055788;28;19924;-86
2023/06/15 07:04:50;;;;;;;;;;;18.60;76.10;;;17.91;69.74;96187.38;5055075;28;19927;-86
2023/06/15 07:07:18;;;;;;;;;;;18.60;76.00;;;17.92;69.54;96180.72;5039286;28;20242;-85
2023/06/15 07:09:46;;;;;;;;;;;18.60;76.00;;;17.95;69.53;96180.88;5039098;28;19920;-86
2023/06/15 07:12:14;;;;;;;;;;;18.70;76.00;;;17.99;69.53;96183.03;5055819;28;19922;-85
2023/06/15 07:14:42;;;;;;;;;;;18.70;75.80;;;18.01;69.41;96192.66;5071741;28;19940;-87
2023/06/15 07:17:10;;;;;;;;;;;18.70;75.70;;;18.04;69.17;96185.69;5039123;28;19933;-85
2023/06/15 07:19:39;;;;;;;;;;;18.80;75.60;;;18.07;69.04;96185.84;5055624;28;19920;-85
2023/06/15 07:22:07;;;;;;;;;;;18.80;75.60;;;18.10;69.34;96184.41;5038973;28;20234;-86
2023/06/15 07:24:36;;;;;;;;;;;18.80;75.40;;;18.14;68.96;96179.06;5073021;28;19921;-87
2023/06/15 07:27:04;;;;;;;;;;;18.90;75.50;;;18.17;68.95;96172.84;5055451;28;19927;-86
2023/06/15 07:29:32;;;;;;;;;;;18.90;75.40;;;18.20;68.88;96175.78;5038550;28;20234;-86
2023/06/15 07:32:01;;;;;;;;;;;18.90;75.20;;;18.24;68.64;96168.47;5055493;28;19927;-85
2023/06/15 07:34:29;;;;;;;;;;;19.00;75.10;;;18.30;68.79;96169.16;5055333;28;19927;-85
2023/06/15 07:36:58;;;;;;;;;;;19.00;75.10;;;18.33;68.60;96171.28;5038475;28;19927;-86
2023/06/15 07:39:26;;;;;;;;;;;19.00;74.80;;;18.33;68.29;96171.28;5055020;28;19920;-86
2023/06/15 07:41:54;;;;;;;;;;;19.10;74.70;;;18.33;68.63;96176.81;5038571;28;19920;-86
2023/06/15 07:44:22;;;;;;;;;;;19.10;74.80;;;18.32;68.56;96177.97;5055170;28;20234;-86
2023/06/15 07:46:50;;;;;;;;;;;19.10;74.70;;;18.32;68.66;96175.19;5054659;28;19920;-86
2023/06/15 07:49:18;;;;;;;;;;;19.10;74.80;;;18.30;68.48;96166.38;5038925;28;19921;-87
2023/06/15 07:51:46;;;;;;;;;;;19.00;74.70;;;18.28;68.44;96179.72;5039187;28;19920;-87
2023/06/15 07:54:16;;;;;;;;;;;19.00;74.60;;;18.26;68.64;96182.03;5055519;28;19920;-87
2023/06/15 07:56:45;;;;;;;;;;;19.00;74.70;;;18.25;68.89;96183.97;5038456;28;19927;-87
2023/06/15 07:59:13;;;;;;;;;;;19.00;74.80;;;18.23;68.92;96182.66;5038977;28;19927;-87
2023/06/15 08:01:41;;;;;;;;;;;19.00;74.90;;;18.22;68.99;96181.03;5055656;28;19931;-87
2023/06/15 08:04:09;;;;;;;;;;;19.00;75.00;;;18.21;69.03;96184.94;5038681;28;20216;-86
2023/06/15 08:06:37;;;;;;;;;;;19.00;75.10;;;18.20;68.93;96180.53;5038147;28;19927;-87
2023/06/15 08:09:05;;;;;;;;;;;19.00;75.20;;;18.19;68.83;96176.13;5072294;28;20381;-87
2023/06/15 08:11:35;;;;;;;;;;;19.00;75.10;;;18.18;69.06;96177.25;5039011;28;19927;-86
2023/06/15 08:14:03;;;;;;;;;;;18.90;75.20;;;18.16;69.13;96182.28;5055112;28;19927;-87
2023/06/15 08:16:31;;;;;;;;;;;18.90;75.20;;;18.17;69.37;96178.38;5054741;28;20231;-87
2023/06/15 08:18:59;;;;;;;;;;;18.90;75.40;;;18.15;69.15;96183.44;5038528;28;19927;-87
2023/06/15 08:21:27;;;;;;;;;;;18.90;75.40;;;18.14;69.41;96179.06;5038596;28;19920;-87
2023/06/15 08:23:55;;;;;;;;;;;18.90;75.40;;;18.15;69.28;96181.50;5071941;28;20203;-86
2023/06/15 08:26:23;;;;;;;;;;;18.90;75.40;;;18.13;69.28;96177.41;5054225;28;19921;-87
2023/06/15 08:28:52;;;;;;;;;;;18.90;75.50;;;18.15;69.26;96186.19;5038384;28;19927;-87
2023/06/15 08:31:20;;;;;;;;;;;18.90;75.50;;;18.14;69.27;96184.59;5054976;28;20101;-87
2023/06/15 08:33:48;;;;;;;;;;;18.90;75.60;;;18.16;69.30;96187.84;5054932;28;19927;-87
2023/06/15 08:36:16;;;;;;;;;;;18.90;75.50;;;18.16;69.14;96190.59;5040479;28;19920;-86
2023/06/15 08:38:44;;;;;;;;;;;18.90;75.60;;;18.16;69.21;96182.28;5037933;28;19946;-86
2023/06/15 08:41:12;;;;;;;;;;;18.90;75.50;;;18.16;69.32;96193.38;5037637;28;19954;-86
2023/06/15 08:43:41;;;;;;;;;;;18.90;75.60;;;18.16;69.18;96193.38;5038039;28;19921;-87
2023/06/15 08:46:11;;;;;;;;;;;18.90;75.50;;;18.16;70.05;96183.13;5053762;28;19926;-87
2023/06/15 08:48:39;;;;;;;;;;;18.90;76.40;;;18.16;69.46;96182.28;5038175;28;20220;-86
2023/06/15 08:51:07;;;;;;;;;;;18.90;75.90;;;18.16;69.33;96182.28;5038004;28;19943;-87
2023/06/15 08:53:37;;;;;;;;;;;18.90;75.60;;;18.15;69.23;96186.19;5054805;28;19921;-86
2023/06/15 08:56:06;;;;;;;;;;;18.90;75.70;;;18.15;69.25;96188.97;5037217;28;19920;-87
2023/06/15 08:58:34;;;;;;;;;;;18.90;75.70;;;18.15;69.37;96186.19;5037802;28;19921;-87
2023/06/15 09:01:02;;;;;;;;;;;18.90;75.80;;;18.15;69.30;96186.19;5037682;28;19920;-87
2023/06/15 09:03:33;;;;;;;;;;;18.90;75.70;;;18.14;69.68;96174.31;5054302;28;19920;-86
2023/06/15 09:06:01;;;;;;;;;;;18.90;76.00;;;18.13;69.49;96181.00;5053732;28;19921;-87
2023/06/15 09:08:29;;;;;;;;;;;18.90;75.80;;;18.13;69.68;96182.97;5070991;28;19927;-86
2023/06/15 09:11:06;;;;;;;;;;;18.90;75.80;;;18.13;69.61;96180.19;5054457;28;19927;-87
2023/06/15 09:13:34;;;;;;;;;;;18.90;75.90;;;18.14;69.39;96181.81;5037597;28;19927;-86
2023/06/15 09:16:03;;;;;;;;;;;18.90;75.80;;;18.12;69.44;96171.03;5036720;28;19927;-86
2023/06/15 09:18:42;;;;;;;;;;;18.90;75.90;;;18.12;69.50;96181.31;5037470;28;19920;-86
2023/06/15 09:21:12;;;;;;;;;;;18.90;75.90;;;18.12;69.66;96173.81;5037466;28;19927;-86
2023/06/15 09:23:44;;;;;;;;;;;18.90;75.90;;;18.11;69.63;96174.94;5054333;28;19926;-87
2023/06/15 09:26:21;;;;;;;;;;;18.90;76.70;;;18.11;69.38;96174.16;5036641;28;19927;-86
2023/06/15 09:28:49;;;;;;;;;;;18.90;75.90;;;18.13;69.43;96169.09;5037721;28;20191;-86
2023/06/15 09:31:29;;;;;;;;;;;18.90;75.90;;;18.11;69.55;96174.16;5037290;28;19927;-86
2023/06/15 09:34:05;;;;;;;;;;;18.90;75.90;;;18.11;69.76;96172.19;5037407;28;19921;-87
2023/06/15 09:36:35;;;;;;;;;;;18.90;75.90;;;18.13;69.49;96182.97;5036660;28;19920;-87
2023/06/15 09:39:04;;;;;;;;;;;18.90;75.90;;;18.13;69.37;96177.41;5053613;28;19920;-87
2023/06/15 09:41:33;;;;;;;;;;;18.90;75.90;;;18.13;69.43;96178.22;5053806;28;19921;-87
2023/06/15 09:44:02;;;;;;;;;;;18.90;75.90;;;18.14;69.42;96165.19;5070419;28;19942;-87
2023/06/15 09:46:31;;;;;;;;;;;18.90;76.10;;;18.14;69.82;96167.97;5053098;28;19927;-86
2023/06/15 09:48:59;;;;;;;;;;;18.90;75.90;;;18.15;69.61;96166.81;5071572;28;19921;-86
2023/06/15 09:51:35;;;;;;;;;;;18.90;75.80;;;18.16;69.72;96165.66;5038903;28;19920;-86
2023/06/15 09:54:04;;;;;;;;;;;18.90;76.00;;;18.17;69.53;96161.75;5057161;28;19927;-87
2023/06/15 09:56:32;;;;;;;;;;;18.90;75.90;;;18.19;69.57;96159.50;5056456;28;19920;-86
2023/06/15 09:59:02;;;;;;;;;;;18.90;75.90;;;18.20;69.47;96164.69;5040675;28;19927;-86
2023/06/15 10:01:30;;;;;;;;;;;18.90;75.80;;;18.21;69.51;96158.03;5040676;28;19920;-86
2023/06/15 10:03:58;;;;;;;;;;;19.00;75.80;;;18.23;69.34;96154.94;5040676;28;19928;-86
2023/06/15 10:06:26;;;;;;;;;;;19.00;75.80;;;18.23;69.57;96152.19;5056170;28;19920;-87
2023/06/15 10:08:57;;;;;;;;;;;19.00;75.70;;;18.24;69.43;96151.84;5040685;28;19921;-87
2023/06/15 10:11:25;;;;;;;;;;;19.00;75.70;;;18.25;69.41;96147.94;5040312;28;19921;-86
2023/06/15 10:13:55;;;;;;;;;;;19.00;75.60;;;18.26;69.50;96146.00;5040383;28;20139;-87
2023/06/15 10:16:23;;;;;;;;;;;19.00;75.60;;;18.27;69.51;96141.25;5056304;28;19920;-87
2023/06/15 10:18:55;;;;;;;;;;;19.00;75.60;;;18.28;69.62;96146.47;5057003;28;19943;-86
2023/06/15 10:21:24;;;;;;;;;;;19.00;75.90;;;18.28;69.51;96140.13;5040277;28;19928;-87
2023/06/15 10:23:56;;;;;;;;;;;19.00;75.60;;;18.27;69.32;96144.84;5040161;28;20212;-86
2023/06/15 10:26:24;;;;;;;;;;;19.00;75.60;;;18.28;69.38;96143.69;5039508;28;19926;-86
2023/06/15 10:28:56;;;;;;;;;;;19.00;75.70;;;18.28;69.62;96137.34;5056972;28;19920;-86
2023/06/15 10:31:30;;;;;;;;;;;19.00;75.70;;;18.29;69.32;96133.44;5056625;28;19920;-86
2023/06/15 10:34:00;;;;;;;;;;;19.00;75.70;;;18.28;69.73;96140.94;5040522;28;19927;-86
2023/06/15 10:36:29;;;;;;;;;;;19.00;76.20;;;18.28;69.65;96140.94;5072561;28;19920;-86
2023/06/15 10:39:03;;;;;;;;;;;19.00;75.90;;;18.28;69.94;96140.94;5056587;28;19920;-86
2023/06/15 10:41:31;;;;;;;;;;;19.00;76.10;;;18.27;69.44;96133.75;5039995;28;20212;-86
2023/06/15 10:43:59;;;;;;;;;;;19.00;75.80;;;18.27;70.04;96139.28;5040144;28;19920;-86
2023/06/15 10:46:28;;;;;;;;;;;19.00;76.30;;;18.28;69.51;96140.13;5055764;28;19920;-86
2023/06/15 10:48:56;;;;;;;;;;;19.00;75.90;;;18.27;69.68;96144.03;5056666;28;19921;-87
2023/06/15 10:51:25;;;;;;;;;;;19.00;75.90;;;18.25;69.61;96131.31;5056288;28;19921;-86
2023/06/15 10:53:54;;;;;;;;;;;19.00;76.00;;;18.26;69.62;96137.69;5040045;28;19920;-87
2023/06/15 10:56:23;;;;;;;;;;;19.00;76.00;;;18.26;69.79;96140.47;5039205;28;20094;-86
2023/06/15 10:58:55;;;;;;;;;;;19.00;76.00;;;18.24;69.66;96134.41;5056246;28;20120;-86
2023/06/15 11:01:24;;;;;;;;;;;19.00;76.10;;;18.25;69.95;96136.06;5039516;28;19927;-86
2023/06/15 11:03:52;;;;;;;;;;;19.00;76.40;;;18.25;70.28;96136.84;5038955;28;19920;-86
2023/06/15 11:06:22;;;;;;;;;;;19.00;76.60;;;18.24;70.17;96135.22;5055425;28;20120;-87
2023/06/15 11:08:51;;;;;;;;;;;19.00;76.40;;;18.25;70.52;96127.75;5056555;28;19927;-86
2023/06/15 11:11:20;;;;;;;;;;;19.00;76.80;;;18.24;69.80;96129.69;5039467;28;19920;-86
2023/06/15 11:14:03;;;;;;;;;;;19.00;76.20;;;18.24;70.19;96124.13;5039535;28;19920;-86
2023/06/15 11:16:32;;;;;;;;;;;19.00;76.30;;;18.26;69.89;96132.16;5038646;28;19927;-86
2023/06/15 11:19:15;;;;;;;;;;;19.00;76.40;;;18.26;69.84;96121.06;5039327;28;19921;-86
2023/06/15 11:21:48;;;;;;;;;;;19.00;76.20;;;18.28;70.10;96131.81;5069867;28;19926;-86
2023/06/15 11:24:16;;;;;;;;;;;19.00;76.40;;;18.27;69.98;96125.44;5039539;28;19927;-86
2023/06/15 11:26:48;;;;;;;;;;;19.00;76.40;;;18.27;70.59;96116.31;5055041;28;20234;-85